sensor_id;sensor_type;location;lat;lon;timestamp;pressure;altitude;pressure_sealevel;temperature;humidity
22047;BME280;11187;49.412;20.956;2023-05-01T00:02:53;95476.59;;;2.30;100.00
22047;BME280;11187;49.412;20.956;2023-05-01T00:05:26;95484.13;;;2.27;100.00
22047;BME280;11187;49.412;20.956;2023-05-01T00:08:20;95486.56;;;2.24;100.00
22047;BME280;11187;49.412;20.956;2023-05-01T00:11:14;95485.66;;;2.21;100.00
22047;BME280;11187;49.412;20.956;2023-05-01T00:13:47;95485.66;;;2.21;100.00
22047;BME280;11187;49.412;20.956;2023-05-01T00:16:34;95490.72;;;2.21;100.00
22047;BME280;11187;49.412;20.956;2023-05-01T00:19:08;95489.88;;;2.20;100.00
22047;BME280;11187;49.412;20.956;2023-05-01T00:22:05;95488.16;;;2.19;100.00
22047;BME280;11187;49.412;20.956;2023-05-01T00:24:38;95484.69;;;2.16;100.00
22047;BME280;11187;49.412;20.956;2023-05-01T00:27:28;95489.69;;;2.13;100.00
22047;BME280;11187;49.412;20.956;2023-05-01T00:30:02;95492.19;;;2.11;100.00
22047;BME280;11187;49.412;20.956;2023-05-01T00:32:49;95492.09;;;2.06;100.00
22047;BME280;11187;49.412;20.956;2023-05-01T00:35:22;95490.38;;;2.04;100.00
22047;BME280;11187;49.412;20.956;2023-05-01T00:38:09;95486.09;;;2.01;100.00
22047;BME280;11187;49.412;20.956;2023-05-01T00:40:43;95490.31;;;2.01;100.00
22047;BME280;11187;49.412;20.956;2023-05-01T00:43:37;95491.13;;;2.00;100.00
22047;BME280;11187;49.412;20.956;2023-05-01T00:46:32;95484.34;;;1.97;100.00
22047;BME280;11187;49.412;20.956;2023-05-01T00:49:06;95478.38;;;1.94;100.00
22047;BME280;11187;49.412;20.956;2023-05-01T00:52:00;95484.19;;;1.90;100.00
22047;BME280;11187;49.412;20.956;2023-05-01T00:54:33;95483.25;;;1.84;100.00
22047;BME280;11187;49.412;20.956;2023-05-01T00:57:27;95479.84;;;1.84;100.00
22047;BME280;11187;49.412;20.956;2023-05-01T01:00:00;95492.47;;;1.84;100.00
22047;BME280;11187;49.412;20.956;2023-05-01T01:02:54;95500.78;;;1.78;100.00
22047;BME280;11187;49.412;20.956;2023-05-01T01:05:53;95496.53;;;1.76;100.00
22047;BME280;11187;49.412;20.956;2023-05-01T01:11:42;95500.59;;;1.69;100.00
22047;BME280;11187;49.412;20.956;2023-05-01T01:14:52;95505.63;;;1.69;100.00
22047;BME280;11187;49.412;20.956;2023-05-01T01:18:02;95510.69;;;1.69;100.00
22047;BME280;11187;49.412;20.956;2023-05-01T01:21:24;95514.78;;;1.65;100.00
22047;BME280;11187;49.412;20.956;2023-05-01T01:33:46;95511.75;;;1.41;100.00
22047;BME280;11187;49.412;20.956;2023-05-01T01:36:33;95509.06;;;1.35;100.00
22047;BME280;11187;49.412;20.956;2023-05-01T01:39:53;95509.81;;;1.31;100.00
22047;BME280;11187;49.412;20.956;2023-05-01T01:42:39;95514.00;;;1.32;100.00
22047;BME280;11187;49.412;20.956;2023-05-01T01:45:39;95513.16;;;1.30;100.00
22047;BME280;11187;49.412;20.956;2023-05-01T01:48:16;95511.38;;;1.25;100.00
22047;BME280;11187;49.412;20.956;2023-05-01T01:51:07;95508.75;;;1.21;100.00
22047;BME280;11187;49.412;20.956;2023-05-01T01:53:47;95508.69;;;1.19;100.00
22047;BME280;11187;49.412;20.956;2023-05-01T01:56:36;95512.00;;;1.17;100.00
22047;BME280;11187;49.412;20.956;2023-05-01T01:59:13;95500.19;;;1.14;100.00
22047;BME280;11187;49.412;20.956;2023-05-01T02:02:02;95502.66;;;1.13;100.00
22047;BME280;11187;49.412;20.956;2023-05-01T02:04:37;95511.06;;;1.13;100.00
22047;BME280;11187;49.412;20.956;2023-05-01T02:07:25;95508.53;;;1.12;100.00
22047;BME280;11187;49.412;20.956;2023-05-01T02:10:03;95502.66;;;1.13;100.00
22047;BME280;11187;49.412;20.956;2023-05-01T02:12:51;95507.66;;;1.11;100.00
22047;BME280;11187;49.412;20.956;2023-05-01T02:15:26;95507.59;;;1.08;100.00
22047;BME280;11187;49.412;20.956;2023-05-01T02:18:13;95501.66;;;1.06;100.00
22047;BME280;11187;49.412;20.956;2023-05-01T02:20:48;95501.69;;;1.08;100.00
22047;BME280;11187;49.412;20.956;2023-05-01T02:23:36;95496.75;;;1.12;100.00
22047;BME280;11187;49.412;20.956;2023-05-01T02:26:14;95492.50;;;1.10;100.00
22047;BME280;11187;49.412;20.956;2023-05-01T02:29:01;95495.81;;;1.07;100.00
22047;BME280;11187;49.412;20.956;2023-05-01T02:31:34;95492.44;;;1.08;100.00
22047;BME280;11187;49.412;20.956;2023-05-01T02:34:21;95492.41;;;1.05;100.00
22047;BME280;11187;49.412;20.956;2023-05-01T02:36:54;95492.34;;;1.03;100.00
22047;BME280;11187;49.412;20.956;2023-05-01T02:39:41;95483.88;;;1.01;100.00
22047;BME280;11187;49.412;20.956;2023-05-01T02:42:15;95477.94;;;0.99;100.00
22047;BME280;11187;49.412;20.956;2023-05-01T02:45:18;95483.84;;;1.00;100.00
22047;BME280;11187;49.412;20.956;2023-05-01T02:48:15;95486.25;;;0.95;100.00
22047;BME280;11187;49.412;20.956;2023-05-01T02:50:50;95474.44;;;0.93;100.00
22047;BME280;11187;49.412;20.956;2023-05-01T02:53:38;95482.88;;;0.93;100.00
22047;BME280;11187;49.412;20.956;2023-05-01T02:56:12;95475.25;;;0.92;100.00
22047;BME280;11187;49.412;20.956;2023-05-01T02:58:59;95474.41;;;0.91;100.00
22047;BME280;11187;49.412;20.956;2023-05-01T03:01:32;95472.78;;;0.93;100.00
22047;BME280;11187;49.412;20.956;2023-05-01T03:04:19;95472.84;;;0.96;100.00
22047;BME280;11187;49.412;20.956;2023-05-01T03:06:52;95476.28;;;1.00;100.00
22047;BME280;11187;49.412;20.956;2023-05-01T03:09:39;95479.63;;;0.99;100.00
22047;BME280;11187;49.412;20.956;2023-05-01T03:12:12;95480.47;;;0.98;100.00
22047;BME280;11187;49.412;20.956;2023-05-01T03:14:59;95479.63;;;0.99;100.00
22047;BME280;11187;49.412;20.956;2023-05-01T03:17:32;95475.44;;;0.99;100.00
22047;BME280;11187;49.412;20.956;2023-05-01T03:20:19;95483.00;;;0.99;100.00
22047;BME280;11187;49.412;20.956;2023-05-01T03:22:53;95484.72;;;1.00;100.00
22047;BME280;11187;49.412;20.956;2023-05-01T03:25:40;95478.00;;;1.01;100.00
22047;BME280;11187;49.412;20.956;2023-05-01T03:28:13;95483.03;;;1.01;100.00
22047;BME280;11187;49.412;20.956;2023-05-01T03:31:09;95475.38;;;0.96;100.00
22047;BME280;11187;49.412;20.956;2023-05-01T03:34:03;95481.97;;;0.91;100.00
22047;BME280;11187;49.412;20.956;2023-05-01T03:36:57;95477.66;;;0.87;100.00
22047;BME280;11187;49.412;20.956;2023-05-01T03:39:51;95479.25;;;0.83;100.00
22047;BME280;11187;49.412;20.956;2023-05-01T03:42:24;95482.53;;;0.81;100.00
22047;BME280;11187;49.412;20.956;2023-05-01T03:45:11;95485.00;;;0.78;100.00
22047;BME280;11187;49.412;20.956;2023-05-01T03:47:44;95480.81;;;0.78;100.00
22047;BME280;11187;49.412;20.956;2023-05-01T03:50:31;95482.47;;;0.78;100.00
22047;BME280;11187;49.412;20.956;2023-05-01T03:53:04;95479.97;;;0.78;100.00
22047;BME280;11187;49.412;20.956;2023-05-01T03:55:52;95479.13;;;0.77;100.00
22047;BME280;11187;49.412;20.956;2023-05-01T03:58:46;95471.44;;;0.73;100.00
22047;BME280;11187;49.412;20.956;2023-05-01T04:01:40;95467.19;;;0.72;100.00
22047;BME280;11187;49.412;20.956;2023-05-01T04:04:13;95473.03;;;0.69;100.00
22047;BME280;11187;49.412;20.956;2023-05-01T04:07:00;95466.19;;;0.65;100.00
22047;BME280;11187;49.412;20.956;2023-05-01T04:09:33;95472.00;;;0.62;100.00
22047;BME280;11187;49.412;20.956;2023-05-01T04:12:20;95466.91;;;0.61;100.00
22047;BME280;11187;49.412;20.956;2023-05-01T04:14:53;95462.00;;;0.66;100.00
22047;BME280;11187;49.412;20.956;2023-05-01T04:17:40;95452.94;;;0.72;100.00
22047;BME280;11187;49.412;20.956;2023-05-01T04:20:15;95456.44;;;0.79;100.00
22047;BME280;11187;49.412;20.956;2023-05-01T04:23:09;95457.34;;;0.81;100.00
22047;BME280;11187;49.412;20.956;2023-05-01T04:25:43;95461.59;;;0.83;100.00
22047;BME280;11187;49.412;20.956;2023-05-01T04:28:37;95465.13;;;0.90;100.00
22047;BME280;11187;49.412;20.956;2023-05-01T04:31:31;95466.81;;;0.90;100.00
22047;BME280;11187;49.412;20.956;2023-05-01T04:34:04;95471.00;;;0.89;100.00
22047;BME280;11187;49.412;20.956;2023-05-01T04:36:51;95468.47;;;0.89;100.00
22047;BME280;11187;49.412;20.956;2023-05-01T04:39:24;95470.31;;;0.96;100.00
22047;BME280;11187;49.412;20.956;2023-05-01T04:42:11;95472.34;;;1.10;100.00
22047;BME280;11187;49.412;20.956;2023-05-01T04:44:44;95465.94;;;1.24;100.00
22047;BME280;11187;49.412;20.956;2023-05-01T04:47:31;95458.06;;;1.48;100.00
22047;BME280;11187;49.412;20.956;2023-05-01T04:50:05;95465.28;;;1.71;100.00
22047;BME280;11187;49.412;20.956;2023-05-01T04:52:59;95465.69;;;1.91;100.00
22047;BME280;11187;49.412;20.956;2023-05-01T04:55:53;95462.84;;;2.18;100.00
22047;BME280;11187;49.412;20.956;2023-05-01T04:58:26;95457.28;;;2.34;100.00
22047;BME280;11187;49.412;20.956;2023-05-01T05:01:13;95461.03;;;2.56;100.00
22047;BME280;11187;49.412;20.956;2023-05-01T05:03:46;95460.66;;;2.82;100.00
22047;BME280;11187;49.412;20.956;2023-05-01T05:06:33;95456.88;;;3.08;100.00
22047;BME280;11187;49.412;20.956;2023-05-01T05:09:06;95460.69;;;3.37;100.00
22047;BME280;11187;49.412;20.956;2023-05-01T05:11:53;95461.97;;;3.66;100.00
22047;BME280;11187;49.412;20.956;2023-05-01T05:14:26;95455.53;;;3.91;100.00
22047;BME280;11187;49.412;20.956;2023-05-01T05:17:13;95444.00;;;4.16;100.00
22047;BME280;11187;49.412;20.956;2023-05-01T05:19:46;95449.31;;;4.38;100.00
22047;BME280;11187;49.412;20.956;2023-05-01T05:22:36;95445.34;;;4.63;100.00
22047;BME280;11187;49.412;20.956;2023-05-01T05:25:09;95451.47;;;4.85;100.00
22047;BME280;11187;49.412;20.956;2023-05-01T05:28:03;95451.69;;;5.10;100.00
22047;BME280;11187;49.412;20.956;2023-05-01T05:30:57;95444.28;;;5.40;100.00
22047;BME280;11187;49.412;20.956;2023-05-01T05:33:51;95443.66;;;5.74;100.00
22047;BME280;11187;49.412;20.956;2023-05-01T05:36:24;95442.97;;;6.01;100.00
22047;BME280;11187;49.412;20.956;2023-05-01T05:39:11;95449.00;;;6.24;99.22
22047;BME280;11187;49.412;20.956;2023-05-01T05:41:45;95443.13;;;6.44;98.61
22047;BME280;11187;49.412;20.956;2023-05-01T05:44:32;95443.19;;;6.67;95.98
22047;BME280;11187;49.412;20.956;2023-05-01T05:47:07;95442.38;;;6.93;95.55
22047;BME280;11187;49.412;20.956;2023-05-01T05:49:54;95442.41;;;7.14;94.30
22047;BME280;11187;49.412;20.956;2023-05-01T05:52:27;95441.53;;;7.37;92.91
22047;BME280;11187;49.412;20.956;2023-05-01T05:55:14;95444.91;;;7.51;90.89
22047;BME280;11187;49.412;20.956;2023-05-01T05:57:47;95441.50;;;7.64;90.83
22047;BME280;11187;49.412;20.956;2023-05-01T06:00:41;95442.28;;;7.89;89.36
22047;BME280;11187;49.412;20.956;2023-05-01T06:03:15;95437.97;;;8.10;87.72
22047;BME280;11187;49.412;20.956;2023-05-01T06:06:02;95444.72;;;8.29;87.44
22047;BME280;11187;49.412;20.956;2023-05-01T06:08:36;95430.22;;;8.45;86.85
22047;BME280;11187;49.412;20.956;2023-05-01T06:11:31;95435.13;;;8.77;86.48
22047;BME280;11187;49.412;20.956;2023-05-01T06:14:25;95439.16;;;9.08;85.81
22047;BME280;11187;49.412;20.956;2023-05-01T06:16:58;95436.38;;;9.38;85.50
22047;BME280;11187;49.412;20.956;2023-05-01T06:19:45;95436.13;;;9.66;84.47
22047;BME280;11187;49.412;20.956;2023-05-01T06:22:19;95434.25;;;9.83;81.17
22047;BME280;11187;49.412;20.956;2023-05-01T06:25:13;95427.13;;;10.12;83.20
22047;BME280;11187;49.412;20.956;2023-05-01T06:27:46;95432.91;;;10.28;78.14
22047;BME280;11187;49.412;20.956;2023-05-01T06:30:40;95427.56;;;10.46;80.11
22047;BME280;11187;49.412;20.956;2023-05-01T06:33:34;95430.66;;;10.71;79.57
22047;BME280;11187;49.412;20.956;2023-05-01T06:36:07;95424.22;;;11.03;79.02
22047;BME280;11187;49.412;20.956;2023-05-01T06:39:01;95418.69;;;11.29;77.52
22047;BME280;11187;49.412;20.956;2023-05-01T06:41:34;95424.28;;;11.53;77.50
22047;BME280;11187;49.412;20.956;2023-05-01T06:44:28;95418.66;;;11.80;75.51
22047;BME280;11187;49.412;20.956;2023-05-01T06:47:22;95427.47;;;12.14;75.94
22047;BME280;11187;49.412;20.956;2023-05-01T06:49:58;95431.22;;;12.41;74.72
22047;BME280;11187;49.412;20.956;2023-05-01T06:52:53;95434.84;;;12.71;69.44
22047;BME280;11187;49.412;20.956;2023-05-01T06:55:48;95440.50;;;12.87;68.47
22047;BME280;11187;49.412;20.956;2023-05-01T06:58:21;95439.22;;;13.06;68.66
22047;BME280;11187;49.412;20.956;2023-05-01T07:01:15;95427.84;;;13.16;65.01
22047;BME280;11187;49.412;20.956;2023-05-01T07:03:48;95439.41;;;13.38;64.96
22047;BME280;11187;49.412;20.956;2023-05-01T07:06:42;95436.16;;;13.64;63.48
22047;BME280;11187;49.412;20.956;2023-05-01T07:09:16;95437.66;;;13.72;62.81
22047;BME280;11187;49.412;20.956;2023-05-01T07:12:02;95428.91;;;13.79;63.46
22047;BME280;11187;49.412;20.956;2023-05-01T07:14:35;95425.66;;;14.06;63.42
22047;BME280;11187;49.412;20.956;2023-05-01T07:17:22;95431.63;;;14.06;58.79
22047;BME280;11187;49.412;20.956;2023-05-01T07:19:55;95433.75;;;14.23;61.85
22047;BME280;11187;49.412;20.956;2023-05-01T07:22:50;95434.97;;;14.41;60.78
22047;BME280;11187;49.412;20.956;2023-05-01T07:25:23;95435.97;;;14.67;60.87
22047;BME280;11187;49.412;20.956;2023-05-01T07:28:10;95439.03;;;14.79;58.23
22047;BME280;11187;49.412;20.956;2023-05-01T07:30:43;95435.91;;;14.98;57.15
22047;BME280;11187;49.412;20.956;2023-05-01T07:33:30;95439.81;;;15.11;59.81
22047;BME280;11187;49.412;20.956;2023-05-01T07:36:03;95432.31;;;15.30;58.76
22047;BME280;11187;49.412;20.956;2023-05-01T07:38:57;95435.22;;;15.48;57.07
22047;BME280;11187;49.412;20.956;2023-05-01T07:41:52;95431.97;;;15.68;55.25
22047;BME280;11187;49.412;20.956;2023-05-01T07:44:46;95425.69;;;15.76;54.06
22047;BME280;11187;49.412;20.956;2023-05-01T07:47:42;95426.13;;;15.89;55.44
22047;BME280;11187;49.412;20.956;2023-05-01T07:50:16;95428.00;;;16.09;55.64
22047;BME280;11187;49.412;20.956;2023-05-01T07:53:09;95431.69;;;16.27;54.73
22047;BME280;11187;49.412;20.956;2023-05-01T07:56:07;95420.56;;;16.48;56.08
22047;BME280;11187;49.412;20.956;2023-05-01T07:59:01;95425.53;;;16.78;55.13
22047;BME280;11187;49.412;20.956;2023-05-01T08:01:55;95424.22;;;17.12;55.45
22047;BME280;11187;49.412;20.956;2023-05-01T08:04:28;95426.44;;;17.43;54.65
22047;BME280;11187;49.412;20.956;2023-05-01T08:07:15;95419.09;;;17.54;52.18
22047;BME280;11187;49.412;20.956;2023-05-01T08:09:48;95412.91;;;17.79;51.41
22047;BME280;11187;49.412;20.956;2023-05-01T08:12:42;95418.38;;;17.93;51.69
22047;BME280;11187;49.412;20.956;2023-05-01T08:15:15;95421.16;;;18.09;51.47
22047;BME280;11187;49.412;20.956;2023-05-01T08:18:02;95415.44;;;18.22;48.06
22047;BME280;11187;49.412;20.956;2023-05-01T08:20:35;95412.47;;;18.50;48.37
22047;BME280;11187;49.412;20.956;2023-05-01T08:23:22;95416.78;;;18.89;45.07
22047;BME280;11187;49.412;20.956;2023-05-01T08:25:56;95404.44;;;18.94;43.66
22047;BME280;11187;49.412;20.956;2023-05-01T08:28:50;95411.28;;;19.14;43.77
22047;BME280;11187;49.412;20.956;2023-05-01T08:31:44;95410.78;;;19.25;43.28
22047;BME280;11187;49.412;20.956;2023-05-01T08:34:17;95416.25;;;19.18;39.67
22047;BME280;11187;49.412;20.956;2023-05-01T08:37:04;95409.09;;;18.87;39.82
22047;BME280;11187;49.412;20.956;2023-05-01T08:39:37;95416.56;;;18.93;39.46
22047;BME280;11187;49.412;20.956;2023-05-01T08:42:31;95407.66;;;18.99;40.39
22047;BME280;11187;49.412;20.956;2023-05-01T08:45:08;95401.59;;;19.17;39.23
22047;BME280;11187;49.412;20.956;2023-05-01T08:48:05;95409.28;;;19.38;38.04
22047;BME280;11187;49.412;20.956;2023-05-01T08:51:00;95411.81;;;19.57;37.79
22047;BME280;11187;49.412;20.956;2023-05-01T08:53:58;95405.91;;;19.36;37.06
22047;BME280;11187;49.412;20.956;2023-05-01T08:56:54;95412.88;;;19.53;36.71
22047;BME280;11187;49.412;20.956;2023-05-01T08:59:54;95405.91;;;19.72;38.23
22047;BME280;11187;49.412;20.956;2023-05-01T09:02:30;95410.63;;;19.99;36.82
22047;BME280;11187;49.412;20.956;2023-05-01T09:05:27;95405.56;;;20.13;35.99
22047;BME280;11187;49.412;20.956;2023-05-01T09:08:00;95400.47;;;20.28;35.27
22047;BME280;11187;49.412;20.956;2023-05-01T09:10:56;95402.53;;;20.38;36.79
22047;BME280;11187;49.412;20.956;2023-05-01T09:13:31;95403.09;;;20.61;35.01
22047;BME280;11187;49.412;20.956;2023-05-01T09:16:19;95408.50;;;20.90;36.27
22047;BME280;11187;49.412;20.956;2023-05-01T09:18:54;95395.38;;;21.07;35.92
22047;BME280;11187;49.412;20.956;2023-05-01T09:21:48;95400.44;;;21.10;33.37
22047;BME280;11187;49.412;20.956;2023-05-01T09:24:42;95396.16;;;21.09;33.54
22047;BME280;11187;49.412;20.956;2023-05-01T09:27:15;95386.81;;;21.21;34.35
22047;BME280;11187;49.412;20.956;2023-05-01T09:30:28;95390.78;;;21.28;33.56
22047;BME280;11187;49.412;20.956;2023-05-01T09:33:22;95392.38;;;21.46;33.20
22047;BME280;11187;49.412;20.956;2023-05-01T09:35:56;95379.19;;;21.64;33.77
22047;BME280;11187;49.412;20.956;2023-05-01T09:38:42;95381.84;;;21.78;31.17
22047;BME280;11187;49.412;20.956;2023-05-01T09:41:16;95370.63;;;21.92;32.66
22047;BME280;11187;49.412;20.956;2023-05-01T09:44:02;95374.81;;;22.09;30.51
22047;BME280;11187;49.412;20.956;2023-05-01T09:46:40;95382.50;;;22.26;31.81
22047;BME280;11187;49.412;20.956;2023-05-01T09:49:45;95372.59;;;22.46;30.57
22047;BME280;11187;49.412;20.956;2023-05-01T09:52:29;95380.53;;;22.59;30.08
22047;BME280;11187;49.412;20.956;2023-05-01T09:55:17;95384.28;;;22.69;30.01
22047;BME280;11187;49.412;20.956;2023-05-01T09:58:25;95395.81;;;22.22;25.98
22047;BME280;11187;49.412;20.956;2023-05-01T10:01:01;95385.41;;;21.61;26.89
22047;BME280;11187;49.412;20.956;2023-05-01T10:03:53;95386.66;;;21.24;28.13
22047;BME280;11187;49.412;20.956;2023-05-01T10:06:28;95363.28;;;21.68;29.00
22047;BME280;11187;49.412;20.956;2023-05-01T10:09:26;95356.28;;;22.14;26.96
22047;BME280;11187;49.412;20.956;2023-05-01T10:11:59;95363.88;;;22.33;29.91
22047;BME280;11187;49.412;20.956;2023-05-01T10:14:53;95359.03;;;22.41;29.56
22047;BME280;11187;49.412;20.956;2023-05-01T10:17:38;95360.13;;;22.65;29.97
22047;BME280;11187;49.412;20.956;2023-05-01T10:20:32;95361.25;;;22.76;30.05
22047;BME280;11187;49.412;20.956;2023-05-01T10:23:06;95354.19;;;22.90;30.88
22047;BME280;11187;49.412;20.956;2023-05-01T10:26:01;95351.09;;;23.12;29.70
22047;BME280;11187;49.412;20.956;2023-05-01T10:28:55;95343.78;;;23.18;31.32
22047;BME280;11187;49.412;20.956;2023-05-01T10:31:31;95347.38;;;23.29;30.33
22047;BME280;11187;49.412;20.956;2023-05-01T10:34:25;95348.03;;;23.46;28.10
22047;BME280;11187;49.412;20.956;2023-05-01T10:37:36;95340.13;;;23.47;29.46
22047;BME280;11187;49.412;20.956;2023-05-01T10:43:27;95345.34;;;23.07;28.45
22047;BME280;11187;49.412;20.956;2023-05-01T10:49:01;95343.09;;;23.01;27.02
22047;BME280;11187;49.412;20.956;2023-05-01T10:54:49;95331.13;;;23.11;28.89
22047;BME280;11187;49.412;20.956;2023-05-01T10:57:43;95327.09;;;23.60;29.14
22047;BME280;11187;49.412;20.956;2023-05-01T11:00:37;95323.25;;;23.79;27.45
22047;BME280;11187;49.412;20.956;2023-05-01T11:06:05;95317.84;;;23.94;27.52
22047;BME280;11187;49.412;20.956;2023-05-01T11:08:51;95313.31;;;24.22;28.23
22047;BME280;11187;49.412;20.956;2023-05-01T11:14:18;95308.84;;;23.99;27.46
22047;BME280;11187;49.412;20.956;2023-05-01T11:20:44;95302.75;;;24.24;27.37
22047;BME280;11187;49.412;20.956;2023-05-01T11:23:26;95303.66;;;24.35;26.31
22047;BME280;11187;49.412;20.956;2023-05-01T11:26:21;95297.72;;;23.82;24.05
22047;BME280;11187;49.412;20.956;2023-05-01T11:29:15;95291.91;;;23.91;26.58
22047;BME280;11187;49.412;20.956;2023-05-01T11:32:15;95294.81;;;23.34;25.03
22047;BME280;11187;49.412;20.956;2023-05-01T11:34:50;95303.41;;;23.36;25.92
22047;BME280;11187;49.412;20.956;2023-05-01T11:37:39;95293.44;;;23.16;26.60
22047;BME280;11187;49.412;20.956;2023-05-01T11:40:23;95286.81;;;23.37;24.73
22047;BME280;11187;49.412;20.956;2023-05-01T11:43:10;95291.72;;;23.54;24.21
22047;BME280;11187;49.412;20.956;2023-05-01T11:45:50;95290.47;;;23.47;23.00
22047;BME280;11187;49.412;20.956;2023-05-01T11:48:48;95286.69;;;23.26;23.26
22047;BME280;11187;49.412;20.956;2023-05-01T11:51:21;95277.38;;;23.22;23.41
22047;BME280;11187;49.412;20.956;2023-05-01T11:57:01;95274.84;;;23.20;24.56
22047;BME280;11187;49.412;20.956;2023-05-01T11:59:47;95282.84;;;23.04;22.83
22047;BME280;11187;49.412;20.956;2023-05-01T12:02:21;95270.69;;;22.49;23.86
22047;BME280;11187;49.412;20.956;2023-05-01T12:05:15;95265.75;;;22.16;23.64
22047;BME280;11187;49.412;20.956;2023-05-01T12:07:49;95255.72;;;21.81;25.28
22047;BME280;11187;49.412;20.956;2023-05-01T12:10:43;95264.63;;;21.48;24.68
22047;BME280;11187;49.412;20.956;2023-05-01T12:13:17;95260.22;;;21.04;24.13
22047;BME280;11187;49.412;20.956;2023-05-01T12:16:12;95259.09;;;20.62;25.03
22047;BME280;11187;49.412;20.956;2023-05-01T12:18:46;95258.34;;;20.12;24.72
22047;BME280;11187;49.412;20.956;2023-05-01T12:21:39;95254.28;;;19.73;25.75
22047;BME280;11187;49.412;20.956;2023-05-01T12:24:33;95254.56;;;19.16;26.31
22047;BME280;11187;49.412;20.956;2023-05-01T12:27:07;95245.78;;;18.84;26.46
22047;BME280;11187;49.412;20.956;2023-05-01T12:29:53;95238.47;;;18.73;28.42
22047;BME280;11187;49.412;20.956;2023-05-01T12:32:30;95242.50;;;18.62;28.53
22047;BME280;11187;49.412;20.956;2023-05-01T12:35:17;95236.81;;;18.36;29.31
22047;BME280;11187;49.412;20.956;2023-05-01T12:37:50;95228.50;;;18.29;29.97
22047;BME280;11187;49.412;20.956;2023-05-01T12:40:39;95225.34;;;18.23;30.09
22047;BME280;11187;49.412;20.956;2023-05-01T12:43:13;95219.47;;;18.19;30.19
22047;BME280;11187;49.412;20.956;2023-05-01T12:46:00;95220.88;;;18.07;29.82
22047;BME280;11187;49.412;20.956;2023-05-01T12:48:37;95210.81;;;18.01;29.89
22047;BME280;11187;49.412;20.956;2023-05-01T12:51:24;95216.53;;;17.89;30.20
22047;BME280;11187;49.412;20.956;2023-05-01T12:54:00;95215.25;;;17.79;29.65
22047;BME280;11187;49.412;20.956;2023-05-01T12:56:47;95213.06;;;17.69;29.97
22047;BME280;11187;49.412;20.956;2023-05-01T12:59:42;95204.03;;;17.59;29.81
22047;BME280;11187;49.412;20.956;2023-05-01T13:02:16;95205.47;;;17.46;30.06
22047;BME280;11187;49.412;20.956;2023-05-01T13:05:11;95207.69;;;17.35;29.44
22047;BME280;11187;49.412;20.956;2023-05-01T13:08:04;95204.84;;;17.20;29.95
22047;BME280;11187;49.412;20.956;2023-05-01T13:10:38;95196.19;;;17.21;30.92
22047;BME280;11187;49.412;20.956;2023-05-01T13:13:26;95199.47;;;17.25;31.79
22047;BME280;11187;49.412;20.956;2023-05-01T13:16:10;95202.72;;;17.30;33.03
22047;BME280;11187;49.412;20.956;2023-05-01T13:19:06;95196.56;;;17.32;32.70
22047;BME280;11187;49.412;20.956;2023-05-01T13:21:59;95200.06;;;17.31;31.92
22047;BME280;11187;49.412;20.956;2023-05-01T13:24:40;95191.66;;;17.26;33.03
22047;BME280;11187;49.412;20.956;2023-05-01T13:27:28;95202.91;;;17.25;32.81
22047;BME280;11187;49.412;20.956;2023-05-01T13:30:02;95191.78;;;17.23;31.98
22047;BME280;11187;49.412;20.956;2023-05-01T13:32:49;95191.00;;;17.21;32.54
22047;BME280;11187;49.412;20.956;2023-05-01T13:35:24;95196.25;;;17.20;34.00
22047;BME280;11187;49.412;20.956;2023-05-01T13:38:18;95188.50;;;17.20;33.45
22047;BME280;11187;49.412;20.956;2023-05-01T13:40:55;95188.41;;;17.21;33.60
22047;BME280;11187;49.412;20.956;2023-05-01T13:43:50;95187.53;;;17.22;34.71
22047;BME280;11187;49.412;20.956;2023-05-01T13:46:44;95186.59;;;17.23;35.21
22047;BME280;11187;49.412;20.956;2023-05-01T13:49:20;95183.25;;;17.21;34.60
22047;BME280;11187;49.412;20.956;2023-05-01T13:52:14;95182.28;;;17.24;34.92
22047;BME280;11187;49.412;20.956;2023-05-01T13:54:51;95177.88;;;17.26;34.08
22047;BME280;11187;49.412;20.956;2023-05-01T13:57:45;95182.34;;;17.22;34.08
22047;BME280;11187;49.412;20.956;2023-05-01T14:00:39;95180.03;;;17.16;34.34
22047;BME280;11187;49.412;20.956;2023-05-01T14:03:14;95168.25;;;17.09;34.11
22047;BME280;11187;49.412;20.956;2023-05-01T14:06:01;95166.84;;;17.02;33.63
22047;BME280;11187;49.412;20.956;2023-05-01T14:08:35;95162.66;;;16.99;33.44
22047;BME280;11187;49.412;20.956;2023-05-01T14:11:21;95155.91;;;16.95;34.49
22047;BME280;11187;49.412;20.956;2023-05-01T14:13:57;95154.25;;;16.94;35.31
22047;BME280;11187;49.412;20.956;2023-05-01T14:16:46;95153.41;;;16.94;35.23
22047;BME280;11187;49.412;20.956;2023-05-01T14:19:21;95152.50;;;16.95;35.34
22047;BME280;11187;49.412;20.956;2023-05-01T14:22:07;95153.28;;;16.97;34.56
22047;BME280;11187;49.412;20.956;2023-05-01T14:24:41;95147.25;;;16.96;34.66
22047;BME280;11187;49.412;20.956;2023-05-01T14:27:27;95151.53;;;16.97;34.85
22047;BME280;11187;49.412;20.956;2023-05-01T14:30:04;95149.00;;;16.96;33.65
22047;BME280;11187;49.412;20.956;2023-05-01T14:32:52;95149.00;;;16.96;34.47
22047;BME280;11187;49.412;20.956;2023-05-01T14:35:25;95143.97;;;16.93;33.80
22047;BME280;11187;49.412;20.956;2023-05-01T14:38:19;95152.63;;;16.91;34.51
22047;BME280;11187;49.412;20.956;2023-05-01T14:41:13;95150.13;;;16.90;34.64
22047;BME280;11187;49.412;20.956;2023-05-01T14:43:49;95149.19;;;16.91;34.49
22047;BME280;11187;49.412;20.956;2023-05-01T14:46:46;95148.31;;;16.92;33.11
22047;BME280;11187;49.412;20.956;2023-05-01T14:49:22;95146.81;;;16.86;33.74
22047;BME280;11187;49.412;20.956;2023-05-01T14:52:09;95145.25;;;16.82;33.53
22047;BME280;11187;49.412;20.956;2023-05-01T14:54:44;95151.19;;;16.84;33.54
22047;BME280;11187;49.412;20.956;2023-05-01T14:57:31;95148.69;;;16.83;32.96